Time;durP1;ratioP1;P1;durP2;ratioP2;P2;SDS_P1;SDS_P2;PMS_P1;PMS_P2;Temp;Humidity;BMP_temperature;BMP_pressure;BME280_temperature;BME280_humidity;BME280_pressure;Samples;Min_cycle;Max_cycle;Signal;HPM_P1;HPM_P2
2023/09/24 00:00:42;;;;;;;8.97;3.63;;;;;;;;;;4995205;28;20861;-77
2023/09/24 00:03:10;;;;;;;6.60;3.10;;;;;;;;;;4995070;28;20681;-78
2023/09/24 00:05:41;;;;;;;5.60;3.50;;;;;;;;;;4995005;28;20216;-79
2023/09/24 00:08:08;;;;;;;5.23;3.00;;;;;;;;;;4995389;28;20202;-78
2023/09/24 00:10:36;;;;;;;7.83;3.20;;;;;;;;;;4994889;28;20202;-78
2023/09/24 00:13:03;;;;;;;8.20;2.97;;;;;;;;;;4994796;28;20205;-77
2023/09/24 00:15:30;;;;;;;7.23;3.27;;;;;;;;;;4994751;28;20280;-78
2023/09/24 00:18:00;;;;;;;7.60;3.60;;;;;;;;;;4995144;28;20256;-78
2023/09/24 00:20:28;;;;;;;7.43;3.20;;;;;;;;;;4994601;28;20197;-77
2023/09/24 00:22:55;;;;;;;6.33;3.60;;;;;;;;;;4995150;28;20759;-78
2023/09/24 00:25:23;;;;;;;8.13;3.67;;;;;;;;;;4994797;28;20716;-79
2023/09/24 00:27:50;;;;;;;7.23;3.33;;;;;;;;;;4994610;28;20206;-79
2023/09/24 00:30:17;;;;;;;8.23;3.60;;;;;;;;;;4994873;28;20194;-77
2023/09/24 00:32:44;;;;;;;7.57;3.27;;;;;;;;;;4995142;28;20248;-77
2023/09/24 00:35:13;;;;;;;8.47;3.33;;;;;;;;;;4994164;28;20257;-78
2023/09/24 00:37:41;;;;;;;9.60;3.30;;;;;;;;;;4994617;28;20299;-78
2023/09/24 00:40:11;;;;;;;7.20;3.00;;;;;;;;;;4994306;28;20304;-78
2023/09/24 00:42:38;;;;;;;7.57;3.50;;;;;;;;;;4994851;28;20194;-78
2023/09/24 00:45:10;;;;;;;8.13;3.43;;;;;;;;;;4993870;28;20288;-78
2023/09/24 00:47:38;;;;;;;9.27;3.60;;;;;;;;;;4994288;28;20264;-76
2023/09/24 00:50:05;;;;;;;11.03;3.63;;;;;;;;;;4994247;28;20209;-78
2023/09/24 00:52:34;;;;;;;6.93;3.50;;;;;;;;;;4994377;28;20209;-77
2023/09/24 00:55:03;;;;;;;9.23;3.47;;;;;;;;;;4994359;28;20276;-78
2023/09/24 00:57:32;;;;;;;7.27;3.43;;;;;;;;;;4993968;28;20209;-78
2023/09/24 01:00:00;;;;;;;8.73;3.73;;;;;;;;;;4994493;28;20697;-78
2023/09/24 01:02:32;;;;;;;6.97;3.30;;;;;;;;;;4994296;28;20260;-79
2023/09/24 01:05:01;;;;;;;7.13;3.23;;;;;;;;;;4993812;28;20292;-77
2023/09/24 01:07:30;;;;;;;9.20;3.33;;;;;;;;;;4993829;28;20202;-78
2023/09/24 01:09:59;;;;;;;9.47;3.50;;;;;;;;;;4993858;28;20230;-78
2023/09/24 01:12:29;;;;;;;7.83;3.87;;;;;;;;;;4994046;28;20212;-78
2023/09/24 01:14:57;;;;;;;6.90;3.60;;;;;;;;;;4994296;28;20232;-77
2023/09/24 01:17:25;;;;;;;6.83;3.20;;;;;;;;;;4993682;28;20719;-76
2023/09/24 01:19:53;;;;;;;6.83;3.20;;;;;;;;;;4993507;28;20240;-77
2023/09/24 01:22:23;;;;;;;7.37;3.50;;;;;;;;;;4993858;28;20667;-77
2023/09/24 01:24:50;;;;;;;5.43;3.30;;;;;;;;;;4994110;28;20231;-78
2023/09/24 01:27:17;;;;;;;7.10;3.33;;;;;;;;;;4993693;28;20202;-76
2023/09/24 01:29:47;;;;;;;6.53;3.00;;;;;;;;;;4993665;28;20210;-77
2023/09/24 01:32:15;;;;;;;7.60;3.10;;;;;;;;;;4993638;28;20198;-77
2023/09/24 01:34:42;;;;;;;7.13;3.10;;;;;;;;;;4992744;28;20226;-76
2023/09/24 01:37:09;;;;;;;8.93;3.47;;;;;;;;;;4993509;28;20256;-78
2023/09/24 01:39:38;;;;;;;6.50;3.30;;;;;;;;;;4993160;28;20244;-77
2023/09/24 01:42:07;;;;;;;6.73;3.30;;;;;;;;;;4993397;28;20194;-77
2023/09/24 01:44:34;;;;;;;5.13;2.83;;;;;;;;;;4993394;28;20240;-78
2023/09/24 01:47:03;;;;;;;9.07;3.20;;;;;;;;;;4993280;28;20198;-79
2023/09/24 01:49:31;;;;;;;6.03;3.17;;;;;;;;;;4993016;28;20692;-79
2023/09/24 01:51:58;;;;;;;6.50;3.53;;;;;;;;;;4993131;28;20202;-78
2023/09/24 01:54:26;;;;;;;6.80;2.87;;;;;;;;;;4992822;28;20276;-78
2023/09/24 01:56:55;;;;;;;6.73;3.50;;;;;;;;;;4992812;28;20212;-79
2023/09/24 01:59:23;;;;;;;8.63;3.47;;;;;;;;;;4993325;28;20197;-78
2023/09/24 02:01:52;;;;;;;8.57;3.50;;;;;;;;;;4992570;28;20680;-77
2023/09/24 02:04:19;;;;;;;8.13;3.30;;;;;;;;;;4992885;28;20237;-77
2023/09/24 02:06:47;;;;;;;7.40;3.40;;;;;;;;;;4992653;28;20264;-78
2023/09/24 02:09:16;;;;;;;9.53;2.97;;;;;;;;;;4993150;28;20202;-76
2023/09/24 02:11:43;;;;;;;6.93;3.10;;;;;;;;;;4993147;28;20603;-79
2023/09/24 02:14:12;;;;;;;8.67;3.20;;;;;;;;;;4992970;28;20251;-77
2023/09/24 02:16:42;;;;;;;7.20;3.10;;;;;;;;;;4984201;28;20230;-78
2023/09/24 02:19:10;;;;;;;6.57;3.03;;;;;;;;;;4979625;28;20285;-76
2023/09/24 02:21:40;;;;;;;7.87;3.10;;;;;;;;;;4973205;28;20210;-78
2023/09/24 02:24:08;;;;;;;6.40;3.30;;;;;;;;;;4972954;28;20269;-79
2023/09/24 02:26:35;;;;;;;8.37;2.83;;;;;;;;;;4973417;28;20206;-76
2023/09/24 02:29:03;;;;;;;6.50;2.73;;;;;;;;;;4973201;28;20277;-78
2023/09/24 02:31:32;;;;;;;7.37;2.43;;;;;;;;;;4973028;28;20206;-78
2023/09/24 02:33:59;;;;;;;6.33;2.70;;;;;;;;;;4973295;28;20202;-79
2023/09/24 02:36:26;;;;;;;6.50;2.60;;;;;;;;;;4972482;28;20257;-78
2023/09/24 02:38:54;;;;;;;6.17;2.77;;;;;;;;;;4973103;28;20544;-78
2023/09/24 02:41:21;;;;;;;8.07;3.00;;;;;;;;;;4972597;28;20233;-78
2023/09/24 02:43:49;;;;;;;7.90;2.83;;;;;;;;;;4972908;28;20258;-79
2023/09/24 02:46:16;;;;;;;7.50;2.70;;;;;;;;;;4972519;28;20580;-78
2023/09/24 02:48:45;;;;;;;7.47;3.07;;;;;;;;;;4973221;28;20206;-78
2023/09/24 02:51:13;;;;;;;6.47;3.13;;;;;;;;;;4972920;28;20249;-78
2023/09/24 02:53:41;;;;;;;7.23;3.17;;;;;;;;;;4972628;28;20198;-78
2023/09/24 02:56:09;;;;;;;6.67;3.03;;;;;;;;;;4972786;28;20265;-76
2023/09/24 02:58:36;;;;;;;7.67;2.90;;;;;;;;;;4972492;28;20632;-78
2023/09/24 03:01:05;;;;;;;8.63;2.90;;;;;;;;;;4972371;28;20709;-78
2023/09/24 03:03:32;;;;;;;8.10;3.13;;;;;;;;;;4972404;28;20253;-79
2023/09/24 03:06:03;;;;;;;6.10;2.70;;;;;;;;;;4972433;28;20241;-78
2023/09/24 03:08:30;;;;;;;9.20;3.03;;;;;;;;;;4972150;28;20684;-78
2023/09/24 03:10:57;;;;;;;8.90;2.97;;;;;;;;;;4972701;28;20206;-78
2023/09/24 03:13:24;;;;;;;6.57;3.20;;;;;;;;;;4972417;28;20198;-77
2023/09/24 03:15:51;;;;;;;6.93;2.77;;;;;;;;;;4972591;28;20288;-78
2023/09/24 03:18:19;;;;;;;10.80;3.60;;;;;;;;;;4982621;28;20201;-79
2023/09/24 03:20:46;;;;;;;10.53;3.10;;;;;;;;;;4991907;28;20221;-78
2023/09/24 03:23:15;;;;;;;6.73;2.83;;;;;;;;;;4991656;28;20292;-79
2023/09/24 03:25:42;;;;;;;5.97;2.80;;;;;;;;;;4991746;28;20279;-77
2023/09/24 03:28:09;;;;;;;8.43;3.07;;;;;;;;;;4991831;28;20244;-77
2023/09/24 03:30:36;;;;;;;7.90;3.07;;;;;;;;;;4991370;28;20699;-79
2023/09/24 03:33:04;;;;;;;6.70;2.50;;;;;;;;;;4991654;28;20202;-77
2023/09/24 03:35:31;;;;;;;6.30;2.50;;;;;;;;;;4991668;28;20276;-79
2023/09/24 03:37:59;;;;;;;8.33;3.07;;;;;;;;;;4991791;28;20264;-78
2023/09/24 03:40:28;;;;;;;7.57;3.20;;;;;;;;;;4991943;28;20213;-78
2023/09/24 03:42:56;;;;;;;8.87;2.60;;;;;;;;;;4991251;28;20200;-78
2023/09/24 03:45:23;;;;;;;8.20;3.20;;;;;;;;;;4991406;28;20202;-78
2023/09/24 03:47:51;;;;;;;6.53;2.90;;;;;;;;;;4991822;28;20269;-78
2023/09/24 03:50:19;;;;;;;7.07;2.93;;;;;;;;;;4991586;28;20284;-78
2023/09/24 03:52:47;;;;;;;7.77;2.90;;;;;;;;;;4991371;28;20249;-78
2023/09/24 03:55:15;;;;;;;8.33;3.10;;;;;;;;;;4991958;28;20226;-79
2023/09/24 03:57:44;;;;;;;7.23;2.90;;;;;;;;;;4991487;28;20744;-79
2023/09/24 04:00:13;;;;;;;8.80;2.93;;;;;;;;;;4991753;28;20225;-78
2023/09/24 04:02:40;;;;;;;6.13;2.57;;;;;;;;;;4991846;28;20194;-77
2023/09/24 04:05:09;;;;;;;6.97;2.50;;;;;;;;;;4991409;28;20198;-78
2023/09/24 04:07:38;;;;;;;9.07;2.90;;;;;;;;;;4991679;28;20206;-79
2023/09/24 04:10:05;;;;;;;9.33;2.97;;;;;;;;;;4991595;28;20302;-78
2023/09/24 04:12:34;;;;;;;5.87;2.70;;;;;;;;;;4990957;28;20276;-77
2023/09/24 04:15:03;;;;;;;7.90;2.97;;;;;;;;;;4991479;28;20230;-78
2023/09/24 04:17:31;;;;;;;8.10;3.27;;;;;;;;;;4991539;28;20249;-77
2023/09/24 04:19:59;;;;;;;5.63;2.73;;;;;;;;;;4991384;28;20201;-78
2023/09/24 04:22:26;;;;;;;7.60;3.00;;;;;;;;;;4993859;28;20237;-79
2023/09/24 04:24:54;;;;;;;7.93;2.90;;;;;;;;;;4994746;28;20198;-79
2023/09/24 04:27:21;;;;;;;7.20;3.00;;;;;;;;;;4994618;28;20609;-78
2023/09/24 04:29:49;;;;;;;8.77;2.80;;;;;;;;;;4994521;28;20403;-79
2023/09/24 04:32:17;;;;;;;6.77;2.63;;;;;;;;;;4994760;28;20343;-78
2023/09/24 04:34:46;;;;;;;7.90;3.00;;;;;;;;;;4994554;28;20297;-78
2023/09/24 04:37:13;;;;;;;5.80;2.60;;;;;;;;;;4994666;28;20230;-78
2023/09/24 04:39:43;;;;;;;8.87;2.60;;;;;;;;;;4994298;28;20198;-78
2023/09/24 04:42:11;;;;;;;9.33;2.67;;;;;;;;;;4994041;28;20232;-78
2023/09/24 04:44:38;;;;;;;8.07;2.70;;;;;;;;;;4994623;28;20202;-78
2023/09/24 04:47:06;;;;;;;7.97;3.30;;;;;;;;;;4994467;28;20201;-78
2023/09/24 04:49:34;;;;;;;5.87;2.93;;;;;;;;;;4994726;28;20194;-78
2023/09/24 04:52:02;;;;;;;6.17;2.63;;;;;;;;;;4994396;28;20198;-77
2023/09/24 04:54:30;;;;;;;8.67;2.60;;;;;;;;;;4994389;28;20198;-78
2023/09/24 04:56:57;;;;;;;7.53;2.63;;;;;;;;;;4994048;28;20233;-79
2023/09/24 04:59:24;;;;;;;7.63;2.83;;;;;;;;;;4994323;28;20627;-79
2023/09/24 05:01:51;;;;;;;6.03;2.47;;;;;;;;;;4994433;28;20821;-78
2023/09/24 05:04:20;;;;;;;7.60;2.70;;;;;;;;;;4994099;28;20209;-79
2023/09/24 05:06:49;;;;;;;7.80;2.53;;;;;;;;;;4993957;28;20237;-78
2023/09/24 05:09:16;;;;;;;8.67;2.83;;;;;;;;;;4994075;28;20202;-79
2023/09/24 05:11:45;;;;;;;4.87;2.53;;;;;;;;;;4993518;28;20269;-78
2023/09/24 05:14:12;;;;;;;8.53;2.80;;;;;;;;;;4993898;28;20233;-78
2023/09/24 05:16:40;;;;;;;8.43;2.60;;;;;;;;;;4993949;28;20268;-78
2023/09/24 05:19:09;;;;;;;8.97;3.10;;;;;;;;;;4993892;28;20241;-78
2023/09/24 05:21:36;;;;;;;9.07;3.03;;;;;;;;;;4993805;28;20325;-79
2023/09/24 05:24:05;;;;;;;7.07;3.50;;;;;;;;;;4993626;28;20230;-80
2023/09/24 05:26:32;;;;;;;9.90;2.70;;;;;;;;;;4993371;28;20260;-80
2023/09/24 05:28:59;;;;;;;8.47;2.60;;;;;;;;;;4993153;28;20684;-80
2023/09/24 05:31:27;;;;;;;9.90;2.90;;;;;;;;;;4993588;28;20280;-80
2023/09/24 05:33:54;;;;;;;5.97;2.93;;;;;;;;;;4993506;28;20296;-80
2023/09/24 05:36:22;;;;;;;7.93;2.90;;;;;;;;;;4993635;28;20279;-79
2023/09/24 05:38:49;;;;;;;8.77;2.87;;;;;;;;;;4993424;28;20288;-79
2023/09/24 05:41:18;;;;;;;6.13;2.90;;;;;;;;;;4993333;28;20201;-79
2023/09/24 05:43:47;;;;;;;6.77;2.63;;;;;;;;;;4993583;28;20198;-79
2023/09/24 05:46:14;;;;;;;8.30;3.00;;;;;;;;;;4993649;28;20208;-80
2023/09/24 05:48:42;;;;;;;6.53;2.80;;;;;;;;;;4993606;28;20301;-79
2023/09/24 05:51:09;;;;;;;6.07;2.40;;;;;;;;;;4993082;28;20764;-80
2023/09/24 05:53:36;;;;;;;6.50;2.87;;;;;;;;;;4992907;28;20260;-80
2023/09/24 05:56:04;;;;;;;8.30;3.10;;;;;;;;;;4993264;28;20276;-80
2023/09/24 05:58:32;;;;;;;6.60;2.97;;;;;;;;;;4992995;28;20281;-80
2023/09/24 06:01:00;;;;;;;6.13;2.60;;;;;;;;;;4993249;28;20581;-79
2023/09/24 06:03:27;;;;;;;10.47;2.67;;;;;;;;;;4993116;28;20198;-80
2023/09/24 06:05:54;;;;;;;7.90;2.60;;;;;;;;;;4993021;28;20260;-80
2023/09/24 06:08:21;;;;;;;6.53;3.00;;;;;;;;;;4992536;28;20685;-79
2023/09/24 06:10:49;;;;;;;7.67;2.40;;;;;;;;;;4992863;28;20701;-79
2023/09/24 06:13:16;;;;;;;6.80;2.80;;;;;;;;;;4992823;28;20198;-79
2023/09/24 06:15:45;;;;;;;8.07;2.90;;;;;;;;;;4993221;28;20252;-79
2023/09/24 06:18:13;;;;;;;6.97;2.93;;;;;;;;;;4992663;28;20599;-80
2023/09/24 06:20:40;;;;;;;7.50;2.67;;;;;;;;;;4992717;28;20212;-80
2023/09/24 06:23:09;;;;;;;8.37;2.97;;;;;;;;;;4992147;28;20229;-80
2023/09/24 06:25:37;;;;;;;7.60;2.97;;;;;;;;;;4992786;28;20236;-81
2023/09/24 06:28:09;;;;;;;7.07;2.80;;;;;;;;;;4992715;28;20584;-80
2023/09/24 06:30:36;;;;;;;6.83;2.70;;;;;;;;;;4992235;28;20198;-79
2023/09/24 06:33:05;;;;;;;6.60;2.70;;;;;;;;;;4992584;28;20203;-80
2023/09/24 06:35:33;;;;;;;4.83;2.87;;;;;;;;;;4992334;28;20194;-79
2023/09/24 06:38:03;;;;;;;6.77;2.50;;;;;;;;;;4992343;28;20229;-79
2023/09/24 06:40:30;;;;;;;8.37;2.80;;;;;;;;;;4992153;28;20241;-81
2023/09/24 06:42:57;;;;;;;6.03;3.00;;;;;;;;;;4992374;28;20197;-80
2023/09/24 06:45:24;;;;;;;8.03;3.10;;;;;;;;;;4991335;28;20197;-80
2023/09/24 06:47:52;;;;;;;5.43;2.60;;;;;;;;;;4992792;28;20261;-80
2023/09/24 06:50:20;;;;;;;7.27;2.83;;;;;;;;;;4991912;28;20739;-81
2023/09/24 06:52:48;;;;;;;9.10;2.83;;;;;;;;;;4991977;28;20252;-81
2023/09/24 06:55:15;;;;;;;7.83;2.43;;;;;;;;;;4992384;28;20256;-80
2023/09/24 06:57:42;;;;;;;8.10;2.70;;;;;;;;;;4991736;28;20619;-80
2023/09/24 07:00:10;;;;;;;5.90;2.50;;;;;;;;;;4992564;28;20280;-81
2023/09/24 07:02:37;;;;;;;5.63;2.70;;;;;;;;;;4992206;28;20587;-80
2023/09/24 07:05:07;;;;;;;5.87;2.30;;;;;;;;;;4991909;28;20206;-80
2023/09/24 07:07:36;;;;;;;6.95;2.40;;;;;;;;;;4991509;28;20620;-81
2023/09/24 07:10:03;;;;;;;5.95;2.70;;;;;;;;;;4991992;28;20794;-79
2023/09/24 07:12:31;;;;;;;8.10;2.35;;;;;;;;;;4992030;28;20669;-80
2023/09/24 07:14:58;;;;;;;9.02;2.50;;;;;;;;;;4992148;28;20201;-80
2023/09/24 07:17:26;;;;;;;4.90;2.20;;;;;;;;;;4991637;28;20240;-79
2023/09/24 07:19:53;;;;;;;5.43;2.30;;;;;;;;;;4992024;28;20723;-78
2023/09/24 07:22:26;;;;;;;5.60;2.60;;;;;;;;;;4991776;28;20242;-80
2023/09/24 07:24:55;;;;;;;4.40;2.22;;;;;;;;;;4991654;28;20296;-80
2023/09/24 07:27:22;;;;;;;5.70;2.42;;;;;;;;;;4991262;28;20206;-79
2023/09/24 07:29:49;;;;;;;6.15;2.60;;;;;;;;;;4991655;28;20197;-79
2023/09/24 07:32:16;;;;;;;5.55;2.42;;;;;;;;;;4991913;28;20620;-80
2023/09/24 07:34:46;;;;;;;7.75;2.42;;;;;;;;;;4991559;28;20198;-80
2023/09/24 07:37:13;;;;;;;5.28;2.17;;;;;;;;;;4991375;28;20233;-79
2023/09/24 07:39:40;;;;;;;5.35;2.38;;;;;;;;;;4992013;28;20202;-79
2023/09/24 07:42:09;;;;;;;4.63;2.33;;;;;;;;;;4991333;28;20197;-79
2023/09/24 07:44:36;;;;;;;4.45;2.28;;;;;;;;;;4991489;28;20205;-80
2023/09/24 07:47:04;;;;;;;5.03;2.58;;;;;;;;;;4991475;28;20228;-79
2023/09/24 07:49:31;;;;;;;5.65;2.10;;;;;;;;;;4991424;28;20194;-79
2023/09/24 07:51:58;;;;;;;5.07;2.20;;;;;;;;;;4991491;28;20198;-80
2023/09/24 07:54:27;;;;;;;4.00;2.20;;;;;;;;;;4991588;28;20202;-80
2023/09/24 07:56:54;;;;;;;5.25;2.50;;;;;;;;;;4994990;28;20228;-79
2023/09/24 07:59:23;;;;;;;5.43;2.45;;;;;;;;;;4995472;28;20229;-80
2023/09/24 08:01:50;;;;;;;6.03;2.45;;;;;;;;;;4995515;28;20683;-80
2023/09/24 08:04:18;;;;;;;4.05;2.40;;;;;;;;;;4994673;28;20256;-79
2023/09/24 08:06:46;;;;;;;4.85;2.22;;;;;;;;;;4994914;28;20240;-79
2023/09/24 08:09:14;;;;;;;4.55;2.00;;;;;;;;;;4995417;28;20288;-79
2023/09/24 08:11:41;;;;;;;6.75;2.90;;;;;;;;;;4995380;28;20808;-77
2023/09/24 08:14:08;;;;;;;4.40;2.30;;;;;;;;;;4994811;28;20776;-78
2023/09/24 08:16:37;;;;;;;5.65;2.55;;;;;;;;;;4994871;28;20221;-78
2023/09/24 08:19:04;;;;;;;7.13;2.58;;;;;;;;;;4994734;28;20201;-78
2023/09/24 08:21:32;;;;;;;3.92;2.45;;;;;;;;;;4994847;28;20210;-78
2023/09/24 08:23:59;;;;;;;6.15;2.35;;;;;;;;;;4994761;28;20229;-78
2023/09/24 08:26:26;;;;;;;5.50;2.70;;;;;;;;;;4994908;28;20213;-78
2023/09/24 08:28:53;;;;;;;5.85;2.53;;;;;;;;;;4994838;28;20260;-79
2023/09/24 08:31:25;;;;;;;6.28;2.60;;;;;;;;;;4995125;28;20411;-78
2023/09/24 08:33:54;;;;;;;6.63;2.40;;;;;;;;;;4994399;28;20547;-79
2023/09/24 08:36:21;;;;;;;4.18;2.42;;;;;;;;;;4994297;28;20883;-78
2023/09/24 08:38:48;;;;;;;6.32;2.13;;;;;;;;;;4994224;28;20205;-77
2023/09/24 08:41:16;;;;;;;8.82;2.40;;;;;;;;;;4994940;28;20201;-78
2023/09/24 08:43:43;;;;;;;7.03;2.65;;;;;;;;;;4994874;28;20588;-79
2023/09/24 08:46:11;;;;;;;5.00;2.47;;;;;;;;;;4994461;28;20221;-79
2023/09/24 08:48:39;;;;;;;5.00;2.30;;;;;;;;;;4994548;28;20288;-78
2023/09/24 08:51:09;;;;;;;5.15;2.20;;;;;;;;;;4994505;28;20720;-79
2023/09/24 08:53:37;;;;;;;4.68;2.38;;;;;;;;;;4994509;28;20229;-78
2023/09/24 08:56:04;;;;;;;5.45;2.95;;;;;;;;;;4994667;28;20202;-78
2023/09/24 08:58:31;;;;;;;4.10;2.08;;;;;;;;;;4994202;28;20300;-78
2023/09/24 09:00:59;;;;;;;6.32;2.13;;;;;;;;;;4994018;28;20556;-79
2023/09/24 09:03:27;;;;;;;5.32;2.20;;;;;;;;;;4994113;28;20569;-79
2023/09/24 09:05:54;;;;;;;5.32;1.98;;;;;;;;;;4994226;28;20248;-79
2023/09/24 09:08:22;;;;;;;7.25;2.90;;;;;;;;;;4994021;28;20426;-79
2023/09/24 09:10:50;;;;;;;7.18;2.60;;;;;;;;;;4993708;28;20206;-79
2023/09/24 09:13:19;;;;;;;4.90;2.22;;;;;;;;;;4994292;28;20574;-79
2023/09/24 09:15:46;;;;;;;5.47;2.03;;;;;;;;;;4992575;28;20197;-78
2023/09/24 09:18:24;;;;;;;5.57;2.65;;;;;;;;;;4984182;28;20334;-80
2023/09/24 09:20:58;;;;;;;6.68;2.55;;;;;;;;;;4989978;28;20613;-79
2023/09/24 09:23:32;;;;;;;5.60;2.30;;;;;;;;;;4979864;28;20226;-78
2023/09/24 09:26:01;;;;;;;6.35;2.40;;;;;;;;;;4974430;28;20581;-79
2023/09/24 09:28:29;;;;;;;7.07;2.10;;;;;;;;;;4974628;28;20198;-77
2023/09/24 09:31:04;;;;;;;5.97;2.17;;;;;;;;;;4974376;28;20579;-79
2023/09/24 09:33:33;;;;;;;6.05;2.42;;;;;;;;;;4973549;28;20218;-78
2023/09/24 09:36:01;;;;;;;4.43;2.08;;;;;;;;;;4973661;28;20198;-78
2023/09/24 09:38:28;;;;;;;4.50;1.90;;;;;;;;;;4954885;29;20242;-78
2023/09/24 09:40:58;;;;;;;5.55;2.20;;;;;;;;;;4955107;29;20290;-78
2023/09/24 09:43:26;;;;;;;5.00;1.90;;;;;;;;;;4960941;28;20202;-79
2023/09/24 09:45:55;;;;;;;2.67;1.50;;;;;;;;;;4962046;28;20223;-78
2023/09/24 09:48:32;;;;;;;3.80;1.80;;;;;;;;;;4972996;28;20210;-79
2023/09/24 09:51:01;;;;;;;6.70;2.80;;;;;;;;;;4960676;28;20666;-78
2023/09/24 09:53:31;;;;;;;4.63;1.80;;;;;;;;;;4969452;28;20203;-78
2023/09/24 09:56:00;;;;;;;5.05;1.77;;;;;;;;;;4963793;28;20263;-79
2023/09/24 09:58:28;;;;;;;3.92;1.92;;;;;;;;;;4973748;28;20296;-79
2023/09/24 10:00:55;;;;;;;5.78;1.88;;;;;;;;;;4973533;28;20229;-78
2023/09/24 10:03:23;;;;;;;4.15;1.73;;;;;;;;;;4973564;28;20295;-78
2023/09/24 10:05:51;;;;;;;3.75;1.65;;;;;;;;;;4973358;28;20250;-79
2023/09/24 10:08:33;;;;;;;3.97;1.85;;;;;;;;;;4973110;28;20234;-79
2023/09/24 10:11:02;;;;;;;3.92;1.67;;;;;;;;;;4952838;28;20242;-78
2023/09/24 10:13:43;;;;;;;5.63;1.73;;;;;;;;;;4955718;28;20207;-78
2023/09/24 10:16:29;;;;;;;5.43;1.80;;;;;;;;;;4965790;28;20295;-78
2023/09/24 10:18:57;;;;;;;6.05;2.00;;;;;;;;;;4956015;28;20230;-78
2023/09/24 10:21:30;;;;;;;3.97;1.65;;;;;;;;;;4968737;28;20734;-79
2023/09/24 10:23:57;;;;;;;4.35;1.88;;;;;;;;;;4990140;28;20243;-78
2023/09/24 10:27:01;;;;;;;3.97;2.10;;;;;;;;;;4991738;28;20201;-79
2023/09/24 10:29:43;;;;;;;6.18;1.88;;;;;;;;;;4912490;29;20204;-78
2023/09/24 10:32:17;;;;;;;3.33;1.70;;;;;;;;;;4912968;29;20196;-78
2023/09/24 10:35:06;;;;;;;6.65;1.70;;;;;;;;;;4913390;29;20201;-78
2023/09/24 10:37:34;;;;;;;3.63;1.60;;;;;;;;;;4907356;29;20849;-79
2023/09/24 10:40:05;;;;;;;5.88;2.05;;;;;;;;;;4913184;29;20248;-79
2023/09/24 10:42:33;;;;;;;3.38;1.73;;;;;;;;;;4912810;29;20296;-78
2023/09/24 10:45:15;;;;;;;6.68;1.92;;;;;;;;;;4912704;29;20208;-79
2023/09/24 10:47:44;;;;;;;5.00;2.10;;;;;;;;;;4912773;29;20246;-78
2023/09/24 10:50:12;;;;;;;4.32;2.00;;;;;;;;;;4912882;29;20204;-79
2023/09/24 10:52:49;;;;;;;4.40;2.08;;;;;;;;;;4912778;29;20228;-79
2023/09/24 10:55:17;;;;;;;4.05;1.95;;;;;;;;;;4913148;29;20202;-78
2023/09/24 10:57:45;;;;;;;3.25;1.60;;;;;;;;;;4912709;29;20232;-79
2023/09/24 11:00:16;;;;;;;4.53;2.17;;;;;;;;;;4912580;29;20291;-79
2023/09/24 11:02:45;;;;;;;3.88;1.80;;;;;;;;;;4926034;28;20229;-79
2023/09/24 11:05:12;;;;;;;3.58;1.50;;;;;;;;;;4992104;28;20201;-78
2023/09/24 11:07:39;;;;;;;4.65;1.70;;;;;;;;;;4991845;28;20937;-79
2023/09/24 11:10:07;;;;;;;4.43;1.83;;;;;;;;;;4991914;28;20252;-79
2023/09/24 11:12:34;;;;;;;4.85;1.73;;;;;;;;;;4991664;28;20684;-79
2023/09/24 11:15:01;;;;;;;5.95;1.77;;;;;;;;;;4991449;28;20201;-79
2023/09/24 11:17:28;;;;;;;4.20;1.60;;;;;;;;;;4992129;28;20197;-76
2023/09/24 11:19:56;;;;;;;3.42;1.70;;;;;;;;;;4992025;28;20216;-80
2023/09/24 11:22:24;;;;;;;3.47;1.55;;;;;;;;;;4991623;28;20234;-80
2023/09/24 11:25:05;;;;;;;5.22;1.88;;;;;;;;;;4991537;28;20289;-79
2023/09/24 11:27:33;;;;;;;2.97;1.45;;;;;;;;;;4991490;28;20681;-79
2023/09/24 11:30:00;;;;;;;3.83;1.55;;;;;;;;;;4992514;28;20201;-79
2023/09/24 11:32:28;;;;;;;4.13;1.77;;;;;;;;;;4995641;28;20225;-80
2023/09/24 11:35:10;;;;;;;3.20;1.50;;;;;;;;;;4996101;28;20204;-79
2023/09/24 11:37:49;;;;;;;4.70;1.77;;;;;;;;;;4992808;28;20221;-79
2023/09/24 11:40:27;;;;;;;4.30;1.50;;;;;;;;;;4995659;28;20272;-79
2023/09/24 11:42:55;;;;;;;3.22;1.70;;;;;;;;;;4995028;28;20206;-79
2023/09/24 11:45:39;;;;;;;3.63;1.80;;;;;;;;;;4996126;28;20233;-79
2023/09/24 11:48:10;;;;;;;4.40;1.58;;;;;;;;;;4995496;28;20252;-79
2023/09/24 11:50:37;;;;;;;2.97;1.73;;;;;;;;;;4995591;28;20202;-79
2023/09/24 11:53:06;;;;;;;3.72;1.50;;;;;;;;;;4995317;28;20215;-78
2023/09/24 11:55:34;;;;;;;3.15;1.45;;;;;;;;;;4994933;28;20206;-79
2023/09/24 11:58:01;;;;;;;4.35;1.80;;;;;;;;;;4994985;28;20805;-79
2023/09/24 12:00:28;;;;;;;4.65;1.60;;;;;;;;;;4995966;28;20198;-79
2023/09/24 12:02:56;;;;;;;6.13;1.70;;;;;;;;;;4995208;28;20276;-79
2023/09/24 12:05:23;;;;;;;4.45;1.63;;;;;;;;;;4994876;28;20206;-79
2023/09/24 12:07:51;;;;;;;5.07;1.80;;;;;;;;;;4995309;28;20277;-79
2023/09/24 12:10:21;;;;;;;3.45;2.03;;;;;;;;;;4995104;28;20284;-79
2023/09/24 12:12:49;;;;;;;3.30;1.80;;;;;;;;;;4984808;28;20217;-80
2023/09/24 12:15:17;;;;;;;3.83;1.80;;;;;;;;;;4989349;28;20696;-78
2023/09/24 12:17:45;;;;;;;4.60;1.90;;;;;;;;;;4993361;28;20284;-79
2023/09/24 12:20:12;;;;;;;4.47;1.42;;;;;;;;;;4990846;28;20770;-79
2023/09/24 12:22:41;;;;;;;3.67;1.60;;;;;;;;;;4994599;28;20284;-79
2023/09/24 12:25:09;;;;;;;2.92;1.75;;;;;;;;;;4992767;28;20212;-79
2023/09/24 12:27:37;;;;;;;4.30;2.00;;;;;;;;;;4994249;28;20206;-79
2023/09/24 12:30:07;;;;;;;2.53;1.63;;;;;;;;;;4993300;28;20288;-78
2023/09/24 12:32:35;;;;;;;4.80;1.92;;;;;;;;;;4993436;28;20244;-79
2023/09/24 12:35:03;;;;;;;3.10;1.77;;;;;;;;;;4993626;28;21189;-78
2023/09/24 12:37:30;;;;;;;2.30;1.60;;;;;;;;;;4994097;28;20285;-78
2023/09/24 12:39:58;;;;;;;3.83;2.00;;;;;;;;;;4991310;28;20230;-78
2023/09/24 12:42:27;;;;;;;3.72;1.60;;;;;;;;;;4993193;28;20692;-78
2023/09/24 12:44:56;;;;;;;3.75;1.60;;;;;;;;;;4993898;28;20232;-78
2023/09/24 12:47:23;;;;;;;4.32;1.98;;;;;;;;;;4994708;28;20202;-78
2023/09/24 12:49:54;;;;;;;6.25;2.13;;;;;;;;;;4994406;28;20559;-78
2023/09/24 12:52:22;;;;;;;4.40;1.95;;;;;;;;;;4994316;28;20206;-78
2023/09/24 12:54:49;;;;;;;4.20;1.88;;;;;;;;;;4993802;28;20227;-78
2023/09/24 12:57:16;;;;;;;3.28;1.55;;;;;;;;;;4994310;28;20272;-79
2023/09/24 12:59:43;;;;;;;2.92;1.60;;;;;;;;;;4993988;28;20276;-78
2023/09/24 13:02:14;;;;;;;5.70;1.75;;;;;;;;;;4992305;28;20206;-78
2023/09/24 13:04:41;;;;;;;3.85;1.92;;;;;;;;;;4994230;28;20281;-78
2023/09/24 13:07:08;;;;;;;6.38;2.00;;;;;;;;;;4993946;28;20321;-78
2023/09/24 13:09:35;;;;;;;4.00;1.88;;;;;;;;;;4993520;28;20222;-78
2023/09/24 13:12:03;;;;;;;3.28;1.98;;;;;;;;;;4991084;28;20252;-78
2023/09/24 13:14:30;;;;;;;3.13;1.85;;;;;;;;;;4993197;28;20256;-78
2023/09/24 13:16:58;;;;;;;3.38;1.75;;;;;;;;;;4991708;28;20288;-78
2023/09/24 13:19:26;;;;;;;3.88;2.00;;;;;;;;;;4988512;28;20254;-78
2023/09/24 13:21:54;;;;;;;3.95;2.20;;;;;;;;;;4989240;28;20202;-78
2023/09/24 13:24:21;;;;;;;3.90;1.90;;;;;;;;;;4991955;28;20809;-78
2023/09/24 13:26:48;;;;;;;2.97;2.00;;;;;;;;;;4991394;28;20551;-77
2023/09/24 13:29:15;;;;;;;4.70;2.10;;;;;;;;;;4988767;28;20210;-78
2023/09/24 13:31:44;;;;;;;6.50;2.05;;;;;;;;;;4992632;28;20202;-77
2023/09/24 13:34:12;;;;;;;3.35;2.05;;;;;;;;;;4992072;28;20205;-77
2023/09/24 13:36:40;;;;;;;3.25;1.95;;;;;;;;;;4990694;28;20210;-77
2023/09/24 13:39:10;;;;;;;5.28;2.25;;;;;;;;;;4991267;28;20218;-78
2023/09/24 13:41:37;;;;;;;4.15;1.90;;;;;;;;;;4989802;28;20214;-78
2023/09/24 13:44:05;;;;;;;4.55;1.90;;;;;;;;;;4992492;28;20279;-76
2023/09/24 13:46:33;;;;;;;3.10;1.90;;;;;;;;;;4990347;28;20801;-77
2023/09/24 13:49:04;;;;;;;4.28;2.20;;;;;;;;;;4992222;28;20224;-79
2023/09/24 13:51:31;;;;;;;3.65;2.30;;;;;;;;;;4995456;28;20201;-78
2023/09/24 13:53:59;;;;;;;5.10;2.40;;;;;;;;;;5012031;28;20283;-78
2023/09/24 13:56:27;;;;;;;5.60;2.60;;;;;;;;;;4995505;28;20210;-78
2023/09/24 13:58:56;;;;;;;3.95;1.90;;;;;;;;;;4992660;28;20576;-78
2023/09/24 14:01:23;;;;;;;3.97;2.10;;;;;;;;;;4991122;28;20304;-78
2023/09/24 14:03:52;;;;;;;4.57;2.55;;;;;;;;;;4992687;28;20202;-78
2023/09/24 14:06:20;;;;;;;5.53;2.47;;;;;;;;;;4991612;28;20202;-79
2023/09/24 14:14:18;;;;;;;3.15;2.33;;;;;;;;;;5012384;28;20200;-78
2023/09/24 14:16:47;;;;;;;3.70;2.35;;;;;;;;;;4991454;28;20194;-78
2023/09/24 14:19:14;;;;;;;4.28;2.03;;;;;;;;;;4992720;28;20234;-78
2023/09/24 14:21:42;;;;;;;3.35;2.30;;;;;;;;;;4994637;28;20194;-79
2023/09/24 14:24:11;;;;;;;4.60;2.28;;;;;;;;;;4977508;28;20235;-79
2023/09/24 14:26:39;;;;;;;4.90;2.40;;;;;;;;;;4961539;28;20290;-79
2023/09/24 14:29:07;;;;;;;3.72;2.53;;;;;;;;;;4973298;28;20202;-79
2023/09/24 14:31:33;;;;;;;6.50;2.50;;;;;;;;;;4972619;28;20194;-78
2023/09/24 14:34:00;;;;;;;3.45;2.47;;;;;;;;;;4973180;28;20293;-78
2023/09/24 14:36:27;;;;;;;4.03;2.35;;;;;;;;;;4972642;28;20210;-78
2023/09/24 14:38:55;;;;;;;4.43;2.50;;;;;;;;;;4972752;28;20816;-78
2023/09/24 14:41:23;;;;;;;4.65;2.40;;;;;;;;;;4972701;28;20204;-78
2023/09/24 14:43:51;;;;;;;4.18;2.40;;;;;;;;;;4968329;28;20197;-78
2023/09/24 14:46:19;;;;;;;5.28;2.60;;;;;;;;;;4972697;28;20233;-79
2023/09/24 14:48:47;;;;;;;4.80;2.35;;;;;;;;;;4955228;28;20207;-78
2023/09/24 14:51:18;;;;;;;6.90;2.80;;;;;;;;;;4954422;28;20203;-79
2023/09/24 14:53:45;;;;;;;7.10;2.70;;;;;;;;;;4953833;29;20274;-78
2023/09/24 14:56:12;;;;;;;3.60;2.30;;;;;;;;;;4963641;28;20691;-78